Southern Sonoma County Latest

20 Stations

15 Minute Data
as of 5/4/26 12:40 PM PDT
Station Date Time Temp (°F) RH (%) Dew Pt (°F) Wind Spd (mph) Wind Dir (°) Wind Gust (mph) Latest Rain (In) Daily Rain (In) Daily Min Temp (°F) Daily Max Temp (°F)
Upper Rincon Valley 5/4/26 1230 60.3   5.9 58   15 45.5   0.6 3.1   1.6 S | 174 8.8   3.6 0.00 0.00 45.5   3.1 61.8   6.6
Lower Bennett Valley 5/4/26 1230 62.4   2.7 60   6 48.3   0.1 4.0   0.9 SSW | 199 7.3   0.3 0.00 0.00 40.1   11.6 64.4   4.0
Kenwood (Wildwood) 5/4/26 1230 63.1   3.0 54   9 46.2   1.4 2.1   1.9 NNW | 346 5.5   4.4 0.00 0.00 43.9   7.7 63.6   2.6
Crane Creek (Ranch 62) 5/4/26 1230 62.3   1.0 59   2 47.8   0.1 1.8   0.3 SSW | 208 5.7   2.5 0.00 0.00 45.5   6.4 66.0   4.3
Rohnert Park-West (Stony Point) 5/4/26 1230 62.4   2.2 69   3 52.0   1.2 7.1   2.4 SW | 224 13.0   4.2 0.00 0.00 43.2   9.2 64.5   4.4
Rice-Spivak Vineyard 5/4/26 1230 63.6   2.5 - - - - - - - 41.3   10.5 66.3   3.6
Cartograph Wines Base 5/4/26 1230 61.3   2.2 75   0 53.4   2.3 7.6   1.7 SSW | 197 13.2   3.0 0.00 0.00 47.5   3.9 62.0   2.9
Cartograph Wines Remote 5/4/26 1230 63.8   2.8 - - - - - - - 46.3   5.8 65.4   4.2
Penngrove (Asellus) 5/4/26 1230 63.7   1.8 48   11 43.9   3.9 4.1   0.3 SW | 231 8.7   1.4 0.00 0.00 41.4   10.9 66.6   4.3
Sonoma Valley (Bedrock) 5/4/26 1230 62.0   1.5 51   8 43.8   2.6 - - - 0.00 0.00 43.0   7.7 62.8   0.0
Sonoma-West (Arnold) 5/4/26 1230 65.0   3.3 48   11 45.0   2.4 4.6   0.5 WSW | 248 10.0   0.4 0.00 0.00 42.1   11.0 65.9   3.9
Sonoma Valley HS 5/4/26 1230 63.7   2.1 54   12 47.0   3.5 4.1   0.7 WSW | 244 8.5   0.1 0.00 0.00 43.5   9.6 65.8   3.6
Sonoma East (Bundschu01) 5/4/26 1230 65.0   2.8 47   12 44.4   3.3 4.1   2.3 W | 271 9.2   3.9 0.00 0.00 40.3   12.8 66.0   3.4
Sonoma-SE (Napoli) 5/4/26 1230 65.7   2.6 44   13 43.1   4.3 4.1   2.5 WSW | 258 7.1   3.7 0.00 0.00 42.0   11.1 66.7   2.6
Schellville (Sasaki) 2/7/26 1900 53.4   2.2 88   10 49.9   1.0 3.3   1.8 SW | 225 5.8   4.0 0.00 0.00 47.0   0.8 62.8   8.4
Petaluma (Ranch 10) 5/4/26 1230 64.9   2.8 45   14 43.3   4.2 5.6   1.6 WNW | 283 9.5   1.1 0.00 0.00 41.0   12.5 68.3   5.1
Carneros (Ranch 71) 5/4/26 1230 63.8   2.7 47   13 42.9   4.2 5.1   3.6 W | 265 11.2   2.7 0.00 0.00 47.1   4.9 64.7   3.2
Ricci Vineyards (Carneros) 5/4/26 1230 64.4   2.7 52   9 46.3   1.6 5.6   1.9 WNW | 282 9.9   2.6 0.00 0.00 42.0   10.9 65.9   3.9
Carneros Upper (Ranch 81) 5/4/26 1230 63.5   2.6 46   12 42.6   3.7 5.2   3.8 W | 262 10.4   4.5 - - 46.7   5.4 64.5   3.5
Carneros Lower (Ranch 81) 5/4/26 1230 67.9   5.2 45   15 46.0   2.9 0.5   2.4 S | 179 3.5   5.3 0.00 0.00 42.6   10.4 67.9   4.3
Max     67.9 75 53.4 7.6 - 13.2 0.00 0.00 47.5 68.3
Avg     63.6 53 46.0 4.3 - 8.9 0.00 - - -
Min     60.3 44 42.6 0.5 - 3.5 0.00 0.00 40.1 61.8